CheckWX is a tool to help pilots better visualize weather data.  It is not intended as a substitute for an official pre-flight weather briefing.

16:54:21 UTC

KFKL TAF
Venango Regional Airport
Franklin, Pennsylvania, USA
KFKL 251351Z 2514/2612 15008KT P6SM VCSH OVC005 FM251900 24009KT P6SM VCSH OVC012 FM260000 23005KT 6SM -SHSN BKN008

Jan-25@
14:00 UTC

Jan-25 @ 14:00 UTC

Jan-25@
19:00 UTC

Jan-25 @ 19:00 UTC

KFKL 251351Z 2514/2612 15008KT P6SM VCSH OVC005
Wind
  • 150° at 8 KTS
Cloud Levels
  • Overcast at 500' AGL

Jan-25@
19:00 UTC

Jan-25 @ 19:00 UTC

Jan-26@
00:00 UTC

Jan-26 @ 00:00 UTC

FM251900 24009KT P6SM VCSH OVC012

From

From Standard forecast or significant change

Wind
  • 240° at 9 KTS
Cloud Levels
  • Overcast at 1,200' AGL

Jan-26@
00:00 UTC

Jan-26 @ 00:00 UTC

Jan-26@
12:00 UTC

Jan-26 @ 12:00 UTC

FM260000 23005KT 6SM -SHSN BKN008

From

From Standard forecast or significant change

Wind
  • 230° at 5 KTS
Conditions
Light Snow
Cloud Levels
  • Broken at 800' AGL